Time;durP1;ratioP1;P1;durP2;ratioP2;P2;SDS_P1;SDS_P2;PMS_P1;PMS_P2;Temp;Humidity;BMP_temperature;BMP_pressure;BME280_temperature;BME280_humidity;BME280_pressure;Samples;Min_cycle;Max_cycle;Signal;HPM_P1;HPM_P2
2023/05/31 00:01:50;;;;;;;1.20;0.93;;;17.30;73.20;;;17.74;nan;101081.91;5031683;28;20635;-67
2023/05/31 00:04:17;;;;;;;2.03;1.33;;;17.30;73.60;;;17.71;nan;101085.69;5027538;28;20636;-66
2023/05/31 00:06:44;;;;;;;2.67;1.20;;;17.30;73.90;;;17.68;nan;101085.13;5012854;28;20624;-67
2023/05/31 00:09:11;;;;;;;2.27;1.10;;;17.20;74.10;;;17.64;nan;101086.41;5018947;28;21007;-65
2023/05/31 00:11:38;;;;;;;0.90;0.87;;;17.20;74.10;;;17.60;nan;101085.88;5026157;28;20620;-66
2023/05/31 00:14:05;;;;;;;0.90;0.90;;;17.20;74.30;;;17.58;nan;101092.25;5031248;28;20604;-65
2023/05/31 00:16:32;;;;;;;0.90;0.90;;;17.10;74.20;;;17.57;nan;101086.13;5023741;28;21047;-66
2023/05/31 00:19:02;;;;;;;1.40;1.30;;;17.10;74.60;;;17.52;nan;101083.13;5022822;28;20738;-68
2023/05/31 00:21:30;;;;;;;1.50;1.43;;;17.10;74.80;;;17.51;nan;101073.53;5020405;28;20666;-64
2023/05/31 00:23:57;;;;;;;1.33;1.30;;;17.10;75.10;;;17.54;nan;101075.06;5020262;28;21237;-66
2023/05/31 00:26:24;;;;;;;0.90;0.90;;;17.10;75.20;;;17.58;nan;101076.44;5021207;28;20705;-64
2023/05/31 00:28:51;;;;;;;1.30;1.20;;;17.10;75.70;;;17.54;nan;101067.97;5028380;28;20644;-65
2023/05/31 00:31:19;;;;;;;1.50;1.40;;;17.10;75.10;;;17.54;nan;101075.06;5025116;28;20668;-68
2023/05/31 00:33:46;;;;;;;1.13;1.03;;;17.10;75.40;;;17.53;nan;101076.84;5028185;28;20644;-65
2023/05/31 00:36:13;;;;;;;1.43;1.33;;;17.10;75.70;;;17.49;nan;101072.81;5027658;28;20659;-68
2023/05/31 00:38:40;;;;;;;2.20;1.30;;;17.10;76.20;;;17.46;nan;101072.28;5030236;28;20652;-65
2023/05/31 00:41:09;;;;;;;3.30;1.20;;;17.00;76.40;;;17.42;nan;101077.00;5030908;28;21277;-69
2023/05/31 00:43:36;;;;;;;3.23;1.23;;;17.00;76.70;;;17.43;nan;101077.81;5032075;28;20640;-65
2023/05/31 00:46:04;;;;;;;1.70;1.30;;;17.00;77.10;;;17.44;nan;101077.69;5027859;28;20636;-66
2023/05/31 00:48:32;;;;;;;2.40;1.50;;;17.00;76.80;;;17.43;nan;101080.47;5008958;28;20641;-65
2023/05/31 00:50:59;;;;;;;1.47;1.30;;;17.00;76.90;;;17.40;nan;101081.56;5010227;28;20669;-68
2023/05/31 00:53:27;;;;;;;2.60;1.67;;;17.00;77.00;;;17.39;nan;101072.03;5007827;28;20645;-66
2023/05/31 00:55:54;;;;;;;1.60;1.50;;;17.00;77.20;;;17.31;nan;101078.97;5021230;28;20632;-66
2023/05/31 00:58:23;;;;;;;1.70;1.30;;;16.90;77.20;;;17.28;nan;101077.44;5017198;28;20660;-70
2023/05/31 01:00:50;;;;;;;1.30;1.20;;;16.90;77.40;;;17.23;nan;101081.50;5025663;28;21250;-65
2023/05/31 01:03:18;;;;;;;3.10;1.20;;;16.80;77.80;;;17.19;nan;101080.09;5027545;28;20636;-65
2023/05/31 01:05:46;;;;;;;2.30;1.50;;;16.80;77.90;;;17.19;nan;101077.47;5029458;28;20613;-66
2023/05/31 01:08:16;;;;;;;2.07;1.67;;;16.80;78.30;;;17.20;nan;101079.97;5027299;28;20682;-65
2023/05/31 01:10:44;;;;;;;2.60;1.70;;;16.80;78.40;;;17.21;nan;101086.06;5012312;28;20661;-68
2023/05/31 01:13:57;;;;;;;2.07;1.90;;;16.80;78.60;;;17.16;nan;101081.25;5026116;28;20700;-65
2023/05/31 01:16:53;;;;;;;2.00;1.80;;;16.70;79.00;;;17.14;nan;101077.91;5022249;28;20633;-65
2023/05/31 01:19:51;;;;;;;1.60;1.50;;;16.70;79.00;;;17.16;nan;101080.41;5013459;28;21209;-68
2023/05/31 01:22:44;;;;;;;2.20;1.70;;;16.70;79.10;;;17.16;nan;101078.59;5027735;28;20645;-67
2023/05/31 01:25:25;;;;;;;2.50;1.43;;;16.70;79.20;;;17.14;nan;101079.72;5022688;28;20625;-66
2023/05/31 01:27:55;;;;;;;1.37;1.07;;;16.70;79.40;;;17.17;nan;101087.31;5026017;28;20628;-65
2023/05/31 01:30:23;;;;;;;1.13;1.13;;;16.70;79.70;;;17.13;nan;101083.31;5015659;28;20657;-69
2023/05/31 01:32:52;;;;;;;1.60;1.20;;;16.70;80.00;;;17.05;nan;101087.50;5031092;28;20637;-67
2023/05/31 01:35:19;;;;;;;2.10;1.87;;;16.60;80.70;;;17.01;nan;101082.66;5024126;28;20625;-63
2023/05/31 01:37:46;;;;;;;3.57;1.77;;;16.60;81.10;;;16.98;nan;101078.47;5023171;28;20631;-66
2023/05/31 01:40:15;;;;;;;2.23;1.50;;;16.60;81.30;;;16.94;nan;101082.38;5022214;28;20673;-64
2023/05/31 01:42:44;;;;;;;3.90;1.40;;;16.50;81.70;;;16.96;nan;101087.50;5012054;28;20638;-67
2023/05/31 01:45:14;;;;;;;1.40;1.30;;;16.50;82.00;;;16.96;nan;101080.44;5015272;28;21132;-65
2023/05/31 01:47:44;;;;;;;1.77;1.30;;;16.50;82.40;;;16.92;nan;101089.59;5013206;28;20629;-68
2023/05/31 01:50:14;;;;;;;1.67;1.53;;;16.50;82.80;;;16.88;nan;101082.94;5009268;28;20665;-66
2023/05/31 01:52:41;;;;;;;1.03;1.00;;;16.50;83.30;;;16.85;nan;101091.09;5011946;28;20652;-65
2023/05/31 01:55:08;;;;;;;1.33;1.17;;;16.40;83.80;;;16.79;nan;101083.75;5021992;28;20627;-67
2023/05/31 01:57:42;;;;;;;1.33;1.23;;;16.40;84.30;;;16.80;nan;101084.59;5027366;28;20633;-66
2023/05/31 02:00:11;;;;;;;1.30;1.20;;;16.40;84.60;;;16.76;nan;101085.84;5024050;28;21182;-66
2023/05/31 02:02:42;;;;;;;1.30;1.20;;;16.30;85.20;;;16.73;nan;101078.22;5008265;28;20637;-65
2023/05/31 02:05:12;;;;;;;1.77;1.67;;;16.30;86.10;;;16.70;nan;101076.69;5019579;28;20644;-68
2023/05/31 02:07:40;;;;;;;2.70;1.43;;;16.30;86.50;;;16.70;nan;101084.59;5010092;28;20602;-65
2023/05/31 02:10:08;;;;;;;1.90;1.80;;;16.30;86.90;;;16.68;nan;101086.53;5035424;28;20655;-65
2023/05/31 02:12:36;;;;;;;6.30;1.67;;;16.30;87.30;;;16.66;nan;101090.28;5034355;28;20648;-68
2023/05/31 02:15:04;;;;;;;2.10;1.50;;;16.20;87.70;;;16.64;nan;101090.41;5011347;28;20664;-69
2023/05/31 02:17:32;;;;;;;1.60;1.50;;;16.20;88.00;;;16.58;nan;101096.25;5009223;28;20669;-66
2023/05/31 02:20:00;;;;;;;2.27;1.30;;;16.20;88.80;;;16.56;nan;101092.91;5017399;28;20699;-64
2023/05/31 02:22:27;;;;;;;3.13;1.50;;;16.20;89.20;;;16.55;nan;101090.38;5021932;28;20630;-67
2023/05/31 02:24:54;;;;;;;1.60;1.33;;;16.10;89.50;;;16.49;nan;101089.13;5010272;28;21212;-67
2023/05/31 02:27:21;;;;;;;1.30;1.20;;;16.10;89.80;;;16.50;nan;101085.56;5018264;28;21195;-62
2023/05/31 02:29:48;;;;;;;1.10;1.10;;;16.10;90.00;;;16.48;nan;101094.53;5030784;28;20660;-65
2023/05/31 02:32:15;;;;;;;4.07;2.23;;;16.10;90.20;;;16.43;nan;101092.31;5025521;28;20618;-64
2023/05/31 02:34:42;;;;;;;1.83;1.57;;;16.10;90.40;;;16.41;nan;101094.25;5029849;28;20643;-64
2023/05/31 02:37:09;;;;;;;2.13;1.10;;;16.00;90.70;;;16.40;nan;101092.56;5017399;28;20617;-64
2023/05/31 02:39:36;;;;;;;1.63;1.53;;;16.00;90.80;;;16.40;nan;101092.56;5023628;28;20672;-65
2023/05/31 02:42:03;;;;;;;1.63;1.53;;;16.00;91.00;;;16.40;nan;101091.75;5021718;28;21184;-67
2023/05/31 02:44:30;;;;;;;1.60;1.50;;;16.00;91.10;;;16.33;nan;101090.63;5013228;28;20633;-67
2023/05/31 02:46:57;;;;;;;5.20;1.30;;;15.90;91.50;;;16.28;nan;101091.88;5013003;28;20648;-66
2023/05/31 02:49:24;;;;;;;2.30;1.37;;;15.90;91.80;;;16.23;nan;101094.06;5027713;28;21293;-66
2023/05/31 02:51:51;;;;;;;1.67;1.57;;;15.80;92.20;;;16.20;nan;101090.88;5023103;28;21231;-66
2023/05/31 02:54:18;;;;;;;2.57;1.53;;;15.80;92.60;;;16.18;nan;101090.19;5015694;28;20633;-67
2023/05/31 02:56:47;;;;;;;1.13;1.13;;;15.80;92.90;;;16.16;nan;101095.56;5017565;28;20642;-68
2023/05/31 02:59:13;;;;;;;1.40;1.30;;;15.70;93.10;;;16.15;nan;101090.44;5029148;28;20656;-72
2023/05/31 03:01:40;;;;;;;3.03;1.70;;;15.80;93.30;;;16.13;nan;101087.13;5033105;28;20628;-69
2023/05/31 03:04:07;;;;;;;1.70;1.50;;;15.80;93.40;;;16.07;nan;101092.91;5027009;28;20644;-65
2023/05/31 03:06:34;;;;;;;1.60;1.50;;;15.70;93.70;;;16.00;nan;101095.25;5015583;28;20617;-65
2023/05/31 03:09:03;;;;;;;2.50;1.50;;;15.70;94.10;;;15.97;nan;101089.44;5031263;28;20716;-64
2023/05/31 03:11:30;;;;;;;5.70;1.57;;;15.60;94.30;;;15.92;nan;101094.25;5027665;28;20665;-68
2023/05/31 03:13:58;;;;;;;1.70;1.60;;;15.60;94.70;;;15.86;nan;101093.00;5009679;28;20613;-68
2023/05/31 03:16:25;;;;;;;2.20;1.43;;;15.50;94.80;;;15.82;nan;101098.66;5012410;28;20975;-65
2023/05/31 03:18:52;;;;;;;1.50;1.30;;;15.40;95.10;;;15.79;nan;101102.38;5010863;28;20676;-66
2023/05/31 03:21:19;;;;;;;1.83;1.40;;;15.40;95.30;;;15.74;nan;101104.56;5028028;28;20644;-67
2023/05/31 03:23:46;;;;;;;2.80;1.47;;;15.40;95.70;;;15.74;nan;101107.19;5022659;28;20640;-68
2023/05/31 03:26:13;;;;;;;1.93;1.83;;;15.30;95.90;;;15.74;nan;101103.75;5025931;28;20637;-65
2023/05/31 03:28:40;;;;;;;2.37;1.60;;;15.30;96.00;;;15.68;nan;101105.09;5033049;28;20596;-66
2023/05/31 03:31:08;;;;;;;3.23;1.30;;;15.30;96.30;;;15.69;nan;101109.41;5033553;28;21215;-62
2023/05/31 03:33:36;;;;;;;1.40;1.30;;;15.30;96.40;;;15.67;nan;101113.13;5032638;28;20640;-69
2023/05/31 03:36:04;;;;;;;2.40;1.30;;;15.30;96.60;;;15.65;nan;101120.31;5019750;28;20608;-66
2023/05/31 03:38:31;;;;;;;6.07;1.40;;;15.30;96.80;;;15.63;nan;101122.25;5016670;28;20612;-68
2023/05/31 03:40:59;;;;;;;1.47;1.37;;;15.20;97.00;;;15.63;nan;101117.78;5011954;28;21248;-67
2023/05/31 03:43:27;;;;;;;9.00;1.83;;;15.20;97.20;;;15.64;nan;101121.25;5021613;28;20656;-63
2023/05/31 03:45:53;;;;;;;1.50;1.40;;;15.30;97.20;;;15.65;nan;101121.16;5031573;28;21192;-64
2023/05/31 03:48:21;;;;;;;1.50;1.40;;;15.30;97.30;;;15.70;nan;101123.38;5029536;28;20640;-69
2023/05/31 03:50:47;;;;;;;1.23;1.20;;;15.30;97.40;;;15.74;nan;101127.44;5028594;28;20673;-67
2023/05/31 03:53:15;;;;;;;1.23;1.20;;;15.30;97.50;;;15.82;nan;101122.34;5025255;28;20637;-67
2023/05/31 03:55:42;;;;;;;1.80;1.70;;;15.40;97.30;;;15.85;nan;101122.06;5013310;28;20639;-61
2023/05/31 03:58:10;;;;;;;1.77;1.37;;;15.50;97.50;;;15.91;nan;101122.34;5010740;28;21230;-62
2023/05/31 04:00:37;;;;;;;1.40;1.40;;;15.50;97.60;;;16.00;nan;101123.38;5025788;28;20684;-66
2023/05/31 04:03:07;;;;;;;5.03;1.97;;;15.60;97.50;;;16.09;nan;101126.03;5028957;28;20632;-63
2023/05/31 04:05:34;;;;;;;2.13;1.90;;;15.70;97.30;;;16.20;nan;101114.56;5027038;28;21045;-63
2023/05/31 04:08:01;;;;;;;1.47;1.07;;;15.80;97.30;;;16.33;nan;101116.97;5026034;28;20639;-64
2023/05/31 04:10:29;;;;;;;2.33;1.13;;;15.90;97.00;;;16.45;nan;101116.69;5031723;28;20659;-65
2023/05/31 04:12:56;;;;;;;1.10;0.83;;;16.10;96.90;;;16.60;nan;101130.34;5025072;28;20629;-67
2023/05/31 04:15:23;;;;;;;2.77;2.03;;;16.20;96.70;;;16.64;nan;101127.31;5032029;28;21249;-67
2023/05/31 04:17:50;;;;;;;1.70;1.60;;;16.30;96.40;;;16.75;nan;101131.59;5030374;28;20624;-66
2023/05/31 04:20:18;;;;;;;2.40;1.80;;;16.40;96.10;;;16.84;nan;101122.88;5027268;28;20679;-66
2023/05/31 04:22:45;;;;;;;2.80;2.17;;;16.50;96.30;;;16.98;nan;101136.47;5030078;28;20616;-65
2023/05/31 04:25:12;;;;;;;5.33;2.13;;;16.60;95.60;;;17.04;nan;101135.91;5011818;28;21275;-65
2023/05/31 04:27:40;;;;;;;7.17;2.23;;;16.70;95.30;;;17.13;nan;101138.69;5030065;28;20628;-67
2023/05/31 04:30:08;;;;;;;3.03;1.73;;;16.80;95.20;;;17.24;nan;101130.63;5026826;28;20698;-67
2023/05/31 04:32:35;;;;;;;3.70;1.60;;;16.90;94.70;;;17.32;nan;101133.38;5031957;28;20605;-66
2023/05/31 04:35:03;;;;;;;2.10;1.67;;;16.90;94.70;;;17.45;nan;101132.13;5030340;28;20632;-70
2023/05/31 04:37:31;;;;;;;2.00;1.90;;;17.10;94.50;;;17.58;nan;101131.84;5013608;28;20613;-72
2023/05/31 04:39:58;;;;;;;3.37;1.70;;;17.20;94.20;;;17.70;nan;101130.69;5009932;28;21060;-67
2023/05/31 04:42:26;;;;;;;3.23;1.83;;;17.30;94.00;;;17.85;nan;101131.88;5027806;28;20669;-65
2023/05/31 04:44:58;;;;;;;1.93;1.73;;;17.50;93.60;;;17.92;nan;101132.97;5012531;28;20632;-65
2023/05/31 04:47:27;;;;;;;2.70;1.60;;;17.50;93.40;;;18.06;nan;101135.13;5026053;28;20619;-66
2023/05/31 04:49:58;;;;;;;1.80;1.70;;;17.70;93.10;;;18.21;nan;101140.75;5010078;28;21535;-65
2023/05/31 04:52:29;;;;;;;1.90;1.53;;;17.80;92.90;;;18.36;nan;101142.75;5020320;28;20637;-67
2023/05/31 04:54:58;;;;;;;1.30;1.20;;;17.90;92.40;;;18.53;nan;101136.69;5029985;28;20609;-68
2023/05/31 04:57:26;;;;;;;2.70;1.40;;;18.10;92.10;;;18.69;nan;101135.22;5031301;28;20633;-70
2023/05/31 04:59:58;;;;;;;2.00;1.83;;;18.30;91.60;;;18.80;nan;101135.00;5030151;28;20702;-68
2023/05/31 05:02:26;;;;;;;2.40;1.90;;;18.40;91.30;;;18.96;nan;101140.41;5009363;28;20604;-71
2023/05/31 05:04:54;;;;;;;1.40;1.30;;;18.50;91.10;;;19.19;nan;101141.59;5024811;28;20609;-72
2023/05/31 05:07:21;;;;;;;5.53;2.07;;;18.70;90.70;;;19.32;nan;101142.03;5025983;28;20604;-65
2023/05/31 05:09:48;;;;;;;2.13;1.40;;;18.90;90.30;;;19.40;nan;101143.97;5031073;28;20655;-65
2023/05/31 05:12:15;;;;;;;2.50;2.30;;;19.00;90.00;;;19.51;nan;101151.63;5029950;28;20635;-71
2023/05/31 05:14:44;;;;;;;2.00;1.80;;;19.10;89.90;;;19.65;nan;101151.91;5013939;28;21015;-68
2023/05/31 05:17:11;;;;;;;3.23;1.63;;;19.30;89.00;;;19.73;nan;101145.81;5022332;28;20616;-69
2023/05/31 05:19:38;;;;;;;1.63;1.53;;;19.30;88.20;;;19.89;nan;101149.38;5029651;28;20699;-66
2023/05/31 05:22:05;;;;;;;3.83;2.00;;;19.50;87.90;;;19.90;nan;101156.34;5030940;28;21259;-70
2023/05/31 05:24:33;;;;;;;3.87;2.33;;;19.50;87.50;;;19.93;nan;101150.72;5013503;28;20641;-67
2023/05/31 05:27:00;;;;;;;5.50;1.90;;;19.50;87.30;;;20.09;nan;101157.94;5014612;28;20639;-66
2023/05/31 05:29:27;;;;;;;2.03;1.77;;;19.70;86.60;;;20.24;nan;101156.38;5022996;28;20651;-66
2023/05/31 05:31:54;;;;;;;2.90;1.90;;;19.80;86.10;;;20.34;nan;101162.38;5016917;28;20654;-66
2023/05/31 05:34:21;;;;;;;2.03;1.67;;;19.90;85.20;;;20.53;nan;101156.00;5017820;28;21211;-65
2023/05/31 05:36:48;;;;;;;2.87;1.73;;;20.10;85.50;;;20.78;nan;101170.97;5023204;28;20621;-67
2023/05/31 05:39:15;;;;;;;1.70;1.43;;;20.30;84.60;;;20.93;nan;101157.88;5023229;28;20648;-65
2023/05/31 05:41:42;;;;;;;2.93;1.47;;;20.50;84.00;;;21.12;nan;101169.03;5037997;28;20629;-68
2023/05/31 05:44:09;;;;;;;3.27;1.43;;;20.70;83.00;;;21.30;nan;101164.38;5023747;28;20629;-64
2023/05/31 05:46:36;;;;;;;2.47;2.27;;;20.90;82.80;;;21.42;nan;101167.53;5030574;28;20984;-66
2023/05/31 05:49:03;;;;;;;2.00;1.30;;;21.00;82.00;;;21.57;nan;101169.34;5029674;28;20636;-66
2023/05/31 05:51:31;;;;;;;2.13;1.63;;;21.10;81.60;;;21.63;nan;101163.38;5013449;28;21279;-66
2023/05/31 05:53:58;;;;;;;1.63;1.50;;;21.20;80.70;;;21.86;nan;101149.38;5011429;28;21356;-65
2023/05/31 05:56:25;;;;;;;1.53;1.40;;;21.40;80.50;;;22.16;nan;101159.25;5014462;28;20617;-68
2023/05/31 05:58:53;;;;;;;10.83;1.93;;;21.60;80.70;;;22.37;nan;101151.50;5018925;28;20652;-67
2023/05/31 06:01:20;;;;;;;1.60;1.50;;;21.90;79.10;;;22.61;nan;101150.59;5018140;28;21235;-66
2023/05/31 06:03:48;;;;;;;2.60;1.63;;;22.10;78.70;;;22.99;nan;101150.50;5021882;28;20612;-66
2023/05/31 06:06:16;;;;;;;2.90;1.70;;;22.40;78.20;;;;;;5028807;28;20633;-65
2023/05/31 06:08:45;;;;;;;2.00;1.70;;;22.70;77.50;;;23.65;nan;101146.25;5024563;28;20643;-67
2023/05/31 06:11:15;;;;;;;1.53;1.43;;;23.00;76.70;;;23.86;nan;101157.03;5017824;28;20667;-69
2023/05/31 06:13:45;;;;;;;2.20;1.50;;;23.30;75.30;;;24.17;nan;101148.88;5025331;28;20631;-66
2023/05/31 06:16:14;;;;;;;2.13;1.60;;;23.60;74.60;;;24.51;nan;101152.53;5022010;28;20657;-69
2023/05/31 06:18:41;;;;;;;2.30;2.10;;;23.90;73.80;;;24.89;nan;101161.22;5024210;28;20674;-70
2023/05/31 06:21:09;;;;;;;2.60;1.97;;;24.30;73.40;;;25.40;nan;101159.19;5023098;28;20703;-66
2023/05/31 06:23:36;;;;;;;2.03;1.80;;;24.70;72.30;;;25.64;nan;101156.09;5029927;28;20621;-64
2023/05/31 06:26:03;;;;;;;2.60;2.17;;;25.10;70.90;;;25.72;nan;101158.66;5020608;28;20648;-68
2023/05/31 06:28:30;;;;;;;2.03;1.77;;;25.20;70.30;;;25.94;nan;101159.38;5018905;28;21201;-64
2023/05/31 06:31:02;;;;;;;2.30;2.07;;;25.40;69.70;;;26.47;nan;101160.47;5020804;28;20669;-67
2023/05/31 06:33:30;;;;;;;1.33;1.23;;;25.80;68.20;;;27.14;nan;101152.38;5025493;28;21231;-66
2023/05/31 06:35:57;;;;;;;1.70;1.60;;;26.50;65.20;;;27.57;nan;101157.16;5028262;28;21219;-69
2023/05/31 06:38:24;;;;;;;2.30;2.10;;;26.90;63.50;;;27.89;nan;101155.44;5019283;28;20625;-66
2023/05/31 06:40:52;;;;;;;1.73;1.63;;;27.30;62.70;;;28.50;nan;101160.38;5033033;28;20675;-69
2023/05/31 06:43:19;;;;;;;1.83;1.57;;;27.90;62.10;;;29.03;nan;101159.03;5032669;28;20725;-69
2023/05/31 06:45:49;;;;;;;2.00;1.73;;;28.50;60.90;;;29.76;nan;101160.13;5032466;28;20633;-66
2023/05/31 06:48:16;;;;;;;2.10;1.40;;;29.20;59.80;;;30.30;nan;101168.22;5032249;28;21004;-68
2023/05/31 06:50:44;;;;;;;1.70;1.60;;;29.80;58.00;;;30.50;nan;101166.09;5023949;28;20669;-69
2023/05/31 06:53:12;;;;;;;1.70;1.60;;;30.10;56.50;;;31.09;nan;101169.81;5028887;28;21226;-70
2023/05/31 06:55:40;;;;;;;1.93;1.70;;;30.50;55.70;;;31.37;nan;101165.38;5029349;28;21014;-66
2023/05/31 06:58:07;;;;;;;2.10;1.93;;;31.00;54.30;;;31.95;nan;101172.69;5023772;28;20633;-70
2023/05/31 07:00:34;;;;;;;4.23;1.60;;;31.50;52.80;;;32.56;nan;101172.09;5031930;28;20672;-69
2023/05/31 07:03:01;;;;;;;1.77;1.67;;;32.10;52.10;;;33.17;nan;101165.88;5027673;28;20610;-67
2023/05/31 07:05:30;;;;;;;1.10;1.10;;;32.70;50.00;;;33.33;nan;101174.00;5014579;28;20616;-68
2023/05/31 07:07:57;;;;;;;1.97;1.80;;;33.00;49.00;;;32.91;nan;101161.91;5030289;28;20627;-68
2023/05/31 07:10:24;;;;;;;2.00;1.73;;;32.70;48.40;;;33.78;nan;101167.66;5032914;28;20660;-66
2023/05/31 07:12:51;;;;;;;2.37;2.13;;;33.30;48.90;;;34.59;nan;101169.50;5012337;28;20636;-66
2023/05/31 07:15:18;;;;;;;2.40;1.50;;;34.00;47.60;;;35.16;nan;101164.38;5031532;28;20616;-69
2023/05/31 07:17:45;;;;;;;1.90;1.80;;;34.70;47.00;;;35.21;nan;101150.81;5029365;28;20636;-65
2023/05/31 07:20:13;;;;;;;1.77;1.67;;;34.70;46.90;;;35.36;nan;101157.19;5027505;28;20672;-68
2023/05/31 07:22:40;;;;;;;2.30;2.10;;;34.90;46.60;;;35.59;nan;101159.53;5031202;28;21229;-70
2023/05/31 07:25:08;;;;;;;2.23;2.07;;;35.20;46.20;;;35.58;nan;101147.06;5023263;28;20630;-70
2023/05/31 07:27:35;;;;;;;1.83;1.73;;;35.30;46.00;;;35.51;nan;101151.06;5017384;28;20629;-69
2023/05/31 07:30:03;;;;;;;1.70;1.60;;;35.10;45.10;;;35.49;nan;101154.06;5030468;28;20671;-69
2023/05/31 07:32:30;;;;;;;1.50;1.50;;;35.20;43.90;;;35.24;nan;101144.88;5022363;28;20640;-72
2023/05/31 07:34:58;;;;;;;1.50;1.50;;;35.10;43.90;;;35.40;nan;101130.34;5023846;28;20641;-70
2023/05/31 07:37:29;;;;;;;1.27;1.27;;;35.20;43.30;;;35.55;nan;101147.56;5019381;28;21433;-70
2023/05/31 07:39:56;;;;;;;4.93;1.83;;;35.30;42.60;;;36.00;nan;101141.59;5029067;28;20672;-69
2023/05/31 07:42:23;;;;;;;1.90;1.80;;;35.70;42.30;;;36.10;nan;101138.09;5028714;28;21208;-69
2023/05/31 07:44:50;;;;;;;1.30;1.30;;;36.00;41.60;;;35.77;nan;101129.25;5015621;28;20614;-70
2023/05/31 07:47:19;;;;;;;1.63;1.63;;;35.80;41.40;;;36.11;nan;101135.09;5023830;28;20628;-69
2023/05/31 07:49:46;;;;;;;1.93;1.30;;;36.20;40.70;;;35.09;nan;101127.44;5017450;28;21278;-71
2023/05/31 07:52:16;;;;;;;1.50;1.50;;;35.50;40.90;;;34.38;nan;101139.44;5011672;28;20649;-70
2023/05/31 07:54:43;;;;;;;1.13;1.13;;;34.60;41.70;;;35.03;nan;101125.75;5013448;28;20640;-70
2023/05/31 07:57:10;;;;;;;1.57;1.47;;;35.00;41.40;;;35.23;nan;101125.06;5018397;28;20651;-70
2023/05/31 07:59:37;;;;;;;3.13;1.60;;;35.20;41.50;;;33.89;nan;101118.81;5040904;28;20691;-71
2023/05/31 08:02:04;;;;;;;1.70;1.60;;;34.40;41.00;;;34.46;nan;101123.81;5025629;28;20664;-70
2023/05/31 08:04:31;;;;;;;1.60;1.50;;;34.30;41.50;;;34.75;nan;101120.63;5029167;28;21064;-69
2023/05/31 08:06:58;;;;;;;1.20;1.20;;;34.80;41.60;;;35.80;nan;101117.00;5021463;28;20624;-70
2023/05/31 08:09:26;;;;;;;2.03;1.80;;;35.70;41.00;;;35.40;nan;101111.34;5026841;28;20988;-70
2023/05/31 08:11:53;;;;;;;1.23;1.23;;;35.70;40.40;;;35.60;nan;101108.78;5011066;28;21448;-69
2023/05/31 08:14:20;;;;;;;1.40;1.40;;;35.70;40.50;;;35.74;nan;101112.66;5013356;28;20655;-69
2023/05/31 08:16:49;;;;;;;0.90;0.90;;;35.70;40.20;;;36.21;nan;101118.00;5031561;28;20647;-71
2023/05/31 08:19:16;;;;;;;1.80;1.80;;;36.20;39.80;;;36.83;nan;101112.41;5022672;28;20649;-71
2023/05/31 08:21:45;;;;;;;0.97;0.97;;;36.60;39.60;;;36.61;nan;101106.44;5021336;28;20673;-71
2023/05/31 08:24:12;;;;;;;1.53;1.43;;;37.00;38.80;;;37.04;nan;101103.19;5026180;28;20648;-68
2023/05/31 08:26:39;;;;;;;1.20;1.20;;;36.90;39.20;;;37.24;nan;101117.59;5016736;28;20703;-74
2023/05/31 08:29:07;;;;;;;2.00;1.90;;;37.40;38.20;;;37.14;nan;101103.97;5025536;28;21204;-71
2023/05/31 08:31:34;;;;;;;1.70;1.60;;;37.00;39.00;;;37.96;nan;101114.41;5022816;28;20660;-70
2023/05/31 08:34:02;;;;;;;1.20;1.20;;;37.70;39.10;;;38.87;nan;101102.94;5025587;28;20670;-70
2023/05/31 08:36:29;;;;;;;1.63;1.53;;;38.60;38.20;;;39.09;nan;101111.47;5016780;28;20617;-69
2023/05/31 08:38:57;;;;;;;1.67;1.37;;;39.20;37.90;;;39.82;nan;101103.06;5029760;28;20613;-71
2023/05/31 08:41:27;;;;;;;2.03;1.70;;;39.70;38.00;;;40.53;nan;101111.94;5018278;28;20677;-71
2023/05/31 08:43:55;;;;;;;1.60;1.50;;;40.30;37.40;;;40.74;nan;101102.28;5020124;28;20609;-69
2023/05/31 08:46:22;;;;;;;2.33;1.70;;;40.50;37.10;;;39.67;nan;101103.25;5010329;28;20621;-71
2023/05/31 08:49:08;;;;;;;1.80;1.70;;;40.10;36.90;;;40.49;nan;101107.34;5021849;28;20637;-71
2023/05/31 08:51:37;;;;;;;1.70;1.70;;;40.40;36.90;;;41.12;nan;101097.53;5020163;28;20698;-72
2023/05/31 08:54:06;;;;;;;2.17;1.80;;;40.90;36.80;;;40.82;nan;101100.81;5021674;28;20642;-69
2023/05/31 08:56:34;;;;;;;1.47;1.33;;;41.00;36.10;;;41.05;nan;101099.03;5011605;28;20622;-70
2023/05/31 08:59:03;;;;;;;1.50;1.50;;;41.10;35.70;;;41.06;nan;101097.94;5010274;28;20629;-73
2023/05/31 09:01:30;;;;;;;1.50;1.40;;;41.20;35.60;;;41.30;nan;101101.31;5017504;28;21243;-70
2023/05/31 09:03:58;;;;;;;1.57;1.57;;;41.40;35.50;;;40.86;nan;101105.41;5029085;28;20671;-74
2023/05/31 09:06:25;;;;;;;2.13;1.90;;;41.20;35.80;;;40.24;nan;101095.66;5018307;28;20637;-70
2023/05/31 09:08:52;;;;;;;2.10;2.00;;;41.00;35.20;;;40.01;nan;101079.34;5011123;28;20598;-70
2023/05/31 09:11:19;;;;;;;1.83;1.83;;;40.40;36.10;;;40.12;nan;101092.56;5012466;28;20669;-71
2023/05/31 09:13:46;;;;;;;1.50;1.50;;;40.40;35.60;;;40.24;nan;101079.28;5010436;28;20625;-68
2023/05/31 09:16:14;;;;;;;1.83;1.73;;;40.40;35.50;;;40.24;nan;101108.53;5013283;28;20630;-70
2023/05/31 09:18:41;;;;;;;2.60;1.73;;;40.30;35.30;;;39.89;nan;101085.19;5021318;28;20645;-68
2023/05/31 09:21:13;;;;;;;1.77;1.67;;;40.10;35.10;;;39.86;nan;101094.00;5022517;28;21239;-70
2023/05/31 09:23:59;;;;;;;3.93;1.07;;;40.10;34.90;;;38.99;nan;101097.94;5024899;28;21035;-73
2023/05/31 09:26:28;;;;;;;1.53;1.43;;;39.60;34.80;;;37.30;nan;101077.56;5010055;28;20614;-67
2023/05/31 09:28:55;;;;;;;1.40;1.40;;;38.00;35.60;;;37.85;nan;101077.41;5030373;28;20609;-71
2023/05/31 09:31:22;;;;;;;1.03;1.00;;;37.90;35.70;;;37.27;nan;101099.88;5013514;28;20665;-69
2023/05/31 09:33:56;;;;;;;2.40;1.40;;;37.80;35.30;;;37.60;nan;101082.94;5013706;28;21008;-69
2023/05/31 09:36:31;;;;;;;1.90;1.80;;;37.60;35.20;;;38.48;nan;101072.97;5017754;28;20687;-70
2023/05/31 09:39:04;;;;;;;1.30;1.30;;;38.40;35.50;;;38.94;nan;101065.22;5027813;28;20651;-68
2023/05/31 09:41:32;;;;;;;11.83;1.30;;;38.90;35.30;;;38.01;nan;101059.91;5013513;28;21264;-69
2023/05/31 09:44:00;;;;;;;1.50;1.50;;;38.60;35.60;;;38.74;nan;101062.69;5010136;28;20637;-68
2023/05/31 09:46:27;;;;;;;1.40;1.40;;;38.70;35.60;;;39.18;nan;101063.38;5016823;28;20648;-66
2023/05/31 09:49:12;;;;;;;1.50;1.40;;;39.20;35.10;;;38.92;nan;101045.59;5009783;28;21024;-69
2023/05/31 09:51:39;;;;;;;1.53;1.53;;;39.40;34.80;;;38.70;nan;101058.91;5019552;28;20656;-71
2023/05/31 09:54:14;;;;;;;1.53;1.43;;;38.80;35.50;;;38.72;nan;101048.50;5022629;28;20663;-67
2023/05/31 09:56:41;;;;;;;1.73;1.73;;;38.60;35.90;;;38.19;nan;101063.06;5013404;28;20626;-67
2023/05/31 09:59:09;;;;;;;1.80;1.70;;;38.10;36.00;;;37.61;nan;101051.09;5015217;28;20642;-69
2023/05/31 10:01:37;;;;;;;1.37;1.33;;;37.70;36.20;;;36.78;nan;101052.59;5009655;28;21246;-69
2023/05/31 10:04:05;;;;;;;0.90;0.90;;;36.60;36.90;;;36.05;nan;101043.81;5013962;28;20702;-70
2023/05/31 10:06:35;;;;;;;1.87;1.77;;;36.00;37.10;;;35.16;nan;101053.97;5010644;28;21630;-69
2023/05/31 10:09:07;;;;;;;1.60;1.50;;;34.90;38.00;;;34.56;nan;101040.75;5017943;28;20633;-69
2023/05/31 10:11:51;;;;;;;1.50;1.40;;;33.90;38.70;;;33.21;nan;101040.75;5011176;28;20661;-69
2023/05/31 10:14:27;;;;;;;1.17;1.13;;;32.80;39.40;;;32.19;nan;101044.69;5010538;28;20634;-71
2023/05/31 10:16:56;;;;;;;1.70;1.60;;;31.90;39.40;;;31.79;nan;101044.69;5014801;28;20640;-67
2023/05/31 10:19:36;;;;;;;2.00;1.53;;;31.10;41.00;;;31.14;nan;101043.22;5015498;28;20640;-70
2023/05/31 10:22:05;;;;;;;1.80;1.33;;;30.60;40.90;;;30.01;nan;101037.09;5012031;28;20644;-70
2023/05/31 10:24:51;;;;;;;1.67;1.50;;;29.60;40.90;;;29.44;nan;101026.81;5018781;28;21011;-69
2023/05/31 10:27:31;;;;;;;1.70;1.40;;;28.90;42.60;;;29.30;nan;101030.69;5012830;28;20629;-69
2023/05/31 10:30:05;;;;;;;1.33;1.13;;;28.60;42.50;;;28.97;nan;101028.28;5027780;28;20663;-67
2023/05/31 10:32:45;;;;;;;1.50;1.40;;;28.30;43.20;;;28.79;nan;101026.38;5016027;28;20893;-68